Time;durP1;ratioP1;P1;durP2;ratioP2;P2;SDS_P1;SDS_P2;PMS_P1;PMS_P2;Temp;Humidity;BMP_temperature;BMP_pressure;BME280_temperature;BME280_humidity;BME280_pressure;Samples;Min_cycle;Max_cycle;Signal;HPM_P1;HPM_P2
2022/08/17 00:01:25;;;;;;;54.17;40.72;;;22.50;99.90;;;;;;5077466;28;20174;-50
2022/08/17 00:03:51;;;;;;;54.85;41.22;;;22.50;99.90;;;;;;5094958;27;20186;-50
2022/08/17 00:06:23;;;;;;;54.38;41.70;;;22.50;99.90;;;;;;5077233;28;20311;-47
2022/08/17 00:08:55;;;;;;;58.95;43.00;;;22.50;99.90;;;;;;5076942;28;20244;-58
2022/08/17 00:11:28;;;;;;;59.00;43.60;;;22.50;99.90;;;;;;5115348;28;20178;-47
2022/08/17 00:13:57;;;;;;;59.38;44.20;;;22.50;99.90;;;;;;5113126;28;20234;-50
2022/08/17 00:16:30;;;;;;;54.05;42.58;;;22.50;99.90;;;;;;5095749;28;20184;-49
2022/08/17 00:18:57;;;;;;;59.38;41.92;;;22.50;99.90;;;;;;5096967;28;20192;-50
2022/08/17 00:21:23;;;;;;;58.20;43.45;;;22.50;99.90;;;;;;5094784;28;20182;-48
2022/08/17 00:23:50;;;;;;;59.58;44.03;;;22.50;99.90;;;;;;5110139;28;20191;-49
2022/08/17 00:26:17;;;;;;;55.70;43.90;;;22.50;99.90;;;;;;5115321;28;20208;-50
2022/08/17 00:28:43;;;;;;;58.05;43.08;;;22.50;99.90;;;;;;5097893;28;20218;-52
2022/08/17 00:31:09;;;;;;;59.05;44.92;;;22.50;99.90;;;;;;5095949;28;20184;-50
2022/08/17 00:33:36;;;;;;;62.60;44.38;;;22.50;99.90;;;;;;5098687;28;20182;-45
2022/08/17 00:36:04;;;;;;;64.53;44.88;;;22.50;99.90;;;;;;5110721;28;20236;-52
2022/08/17 00:38:31;;;;;;;59.20;44.88;;;22.60;99.90;;;;;;5083882;28;20184;-47
2022/08/17 00:41:01;;;;;;;55.92;45.15;;;22.60;99.90;;;;;;5088789;28;20254;-50
2022/08/17 00:43:34;;;;;;;63.42;46.05;;;22.60;99.90;;;;;;5100553;28;20583;-52
2022/08/17 00:46:06;;;;;;;57.65;45.53;;;22.60;99.90;;;;;;5097749;28;20182;-48
2022/08/17 00:48:32;;;;;;;60.92;45.72;;;22.60;99.90;;;;;;5094664;28;20302;-50
2022/08/17 00:51:28;;;;;;;59.58;44.88;;;22.70;99.90;;;;;;5076804;28;20190;-48
2022/08/17 00:54:08;;;;;;;65.20;44.72;;;22.70;99.90;;;;;;5090110;28;20198;-50
2022/08/17 00:56:58;;;;;;;63.80;46.13;;;22.60;99.90;;;;;;5076038;28;20192;-53
2022/08/17 00:59:29;;;;;;;61.58;45.92;;;22.70;99.90;;;;;;5094078;28;20179;-50
2022/08/17 01:01:56;;;;;;;60.95;45.20;;;22.60;99.90;;;;;;5110429;28;20185;-49
2022/08/17 01:04:23;;;;;;;58.40;44.85;;;22.60;99.90;;;;;;5093070;28;20213;-52
2022/08/17 01:06:50;;;;;;;61.72;45.38;;;22.60;99.90;;;;;;5101387;28;20186;-55
2022/08/17 01:09:17;;;;;;;61.22;45.58;;;22.50;99.90;;;;;;5093106;28;20209;-50
2022/08/17 01:11:45;;;;;;;60.88;43.97;;;22.50;99.90;;;;;;5114282;28;20687;-49
2022/08/17 01:14:12;;;;;;;61.35;45.55;;;22.50;99.90;;;;;;5104282;27;20177;-57
2022/08/17 01:16:38;;;;;;;63.40;43.85;;;22.40;99.90;;;;;;5096063;28;20209;-52
2022/08/17 01:19:16;;;;;;;59.80;44.67;;;22.40;99.90;;;;;;5087202;28;20194;-49
2022/08/17 01:21:45;;;;;;;61.08;44.70;;;22.30;99.90;;;;;;5113989;28;20165;-51
2022/08/17 01:24:11;;;;;;;58.33;45.03;;;22.30;99.90;;;;;;5094307;28;20664;-50
2022/08/17 01:26:39;;;;;;;61.65;45.13;;;22.20;99.90;;;;;;5075584;28;20177;-50
2022/08/17 01:29:05;;;;;;;57.28;44.28;;;22.20;99.90;;;;;;5110498;28;20217;-49
2022/08/17 01:31:37;;;;;;;58.30;44.95;;;22.20;99.90;;;;;;5113982;28;20177;-49
2022/08/17 01:34:08;;;;;;;62.20;44.50;;;22.20;99.90;;;;;;5094503;28;20174;-46
2022/08/17 01:36:36;;;;;;;61.50;44.63;;;22.30;99.90;;;;;;5112672;28;20187;-46
2022/08/17 01:39:03;;;;;;;58.05;43.95;;;22.30;99.90;;;;;;5112154;28;20180;-50
2022/08/17 01:41:29;;;;;;;58.92;44.33;;;22.30;99.90;;;;;;5093798;28;20213;-48
2022/08/17 01:44:01;;;;;;;62.13;45.70;;;22.30;99.90;;;;;;5094040;28;20217;-51
2022/08/17 01:46:30;;;;;;;56.47;42.85;;;22.40;99.90;;;;;;5113527;28;20181;-46
2022/08/17 01:48:57;;;;;;;56.08;44.05;;;22.40;99.90;;;;;;5098794;28;20278;-48
2022/08/17 01:51:26;;;;;;;55.28;43.25;;;22.40;99.90;;;;;;5092841;28;20234;-49
2022/08/17 01:53:56;;;;;;;57.83;43.17;;;22.40;99.90;;;;;;5093441;28;20265;-50
2022/08/17 01:56:24;;;;;;;57.00;44.17;;;22.40;99.90;;;;;;5093287;28;20196;-47
2022/08/17 01:58:51;;;;;;;52.25;43.42;;;22.40;99.90;;;;;;5092102;28;20178;-48
2022/08/17 02:01:25;;;;;;;57.58;41.95;;;22.40;99.90;;;;;;5093076;28;20228;-52
2022/08/17 02:03:52;;;;;;;57.15;43.03;;;22.40;99.90;;;;;;5092723;27;20189;-52
2022/08/17 02:06:18;;;;;;;55.47;43.53;;;22.40;99.90;;;;;;5106122;28;20268;-46
2022/08/17 02:08:45;;;;;;;54.80;42.97;;;22.40;99.90;;;;;;5111318;28;20311;-50
2022/08/17 02:11:15;;;;;;;56.95;43.33;;;22.40;99.90;;;;;;5095415;28;20181;-50
2022/08/17 02:13:45;;;;;;;54.78;42.15;;;22.40;99.90;;;;;;5111693;28;20209;-52
2022/08/17 02:16:12;;;;;;;53.38;42.55;;;22.40;99.90;;;;;;5112056;28;20189;-56
2022/08/17 02:18:37;;;;;;;55.08;43.28;;;22.40;99.90;;;;;;5097023;28;20194;-45
2022/08/17 02:21:04;;;;;;;55.42;42.70;;;22.40;99.90;;;;;;5085406;28;20655;-49
2022/08/17 02:23:33;;;;;;;59.65;43.75;;;22.40;99.90;;;;;;5108722;28;20222;-49
2022/08/17 02:25:59;;;;;;;59.90;44.33;;;22.50;99.90;;;;;;5098860;28;20184;-53
2022/08/17 02:28:27;;;;;;;59.22;43.70;;;22.50;99.90;;;;;;5099154;28;20270;-49
2022/08/17 02:30:53;;;;;;;59.15;45.25;;;22.40;99.90;;;;;;5092906;28;20261;-48
2022/08/17 02:33:20;;;;;;;63.35;47.10;;;22.40;99.90;;;;;;5092880;28;20181;-47
2022/08/17 02:35:46;;;;;;;86.53;49.92;;;22.20;99.90;;;;;;5103995;28;20181;-56
2022/08/17 02:38:12;;;;;;;118.05;50.83;;;22.10;99.90;;;;;;5093268;28;20204;-51
2022/08/17 02:40:39;;;;;;;109.30;56.55;;;21.70;99.90;;;;;;5102056;28;20648;-45
2022/08/17 02:43:07;;;;;;;98.53;44.83;;;21.30;99.90;;;;;;5102052;28;20638;-44
2022/08/17 02:45:33;;;;;;;126.93;58.92;;;20.90;99.90;;;;;;5092500;28;20178;-45
2022/08/17 02:47:59;;;;;;;97.38;52.30;;;20.60;99.90;;;;;;5095994;28;20704;-44
2022/08/17 02:50:24;;;;;;;87.45;47.47;;;20.50;99.90;;;;;;5109724;28;20228;-48
2022/08/17 02:52:51;;;;;;;98.07;49.35;;;20.30;99.90;;;;;;5110769;28;20213;-49
2022/08/17 02:55:23;;;;;;;80.70;44.03;;;20.20;99.90;;;;;;5103000;28;20181;-47
2022/08/17 02:57:49;;;;;;;81.22;41.75;;;20.20;99.90;;;;;;5096766;28;20181;-50
2022/08/17 03:00:22;;;;;;;77.60;38.58;;;20.00;99.90;;;;;;5096555;28;20219;-48
2022/08/17 03:02:48;;;;;;;79.45;39.83;;;20.00;99.90;;;;;;5096342;28;20190;-46
2022/08/17 03:05:17;;;;;;;109.57;46.13;;;19.90;99.90;;;;;;5096408;28;20219;-46
2022/08/17 03:07:42;;;;;;;81.20;42.05;;;20.00;99.90;;;;;;5096750;28;20182;-50
2022/08/17 03:10:10;;;;;;;84.68;40.92;;;20.00;99.90;;;;;;5095912;28;20250;-47
2022/08/17 03:12:38;;;;;;;81.97;36.58;;;19.90;99.90;;;;;;5096760;28;20190;-51
2022/08/17 03:15:12;;;;;;;81.95;36.28;;;19.90;99.90;;;;;;5100858;28;20181;-52
2022/08/17 03:17:38;;;;;;;93.53;39.47;;;19.80;99.90;;;;;;5109578;28;20213;-52
2022/08/17 03:20:06;;;;;;;73.97;37.97;;;19.70;99.90;;;;;;5096077;28;20278;-55
2022/08/17 03:22:39;;;;;;;83.82;38.55;;;19.70;99.90;;;;;;5096175;28;20197;-53
2022/08/17 03:25:08;;;;;;;101.53;40.38;;;19.70;99.90;;;;;;5096484;28;20224;-51
2022/08/17 03:27:34;;;;;;;96.72;42.33;;;19.70;99.90;;;;;;5096178;28;20186;-52
2022/08/17 03:30:00;;;;;;;105.05;44.05;;;19.70;99.90;;;;;;5077723;28;20206;-49
2022/08/17 03:32:26;;;;;;;102.32;46.67;;;19.80;99.90;;;;;;5095374;28;20590;-61
2022/08/17 03:34:57;;;;;;;105.22;46.30;;;19.80;99.90;;;;;;5082619;28;20169;-50
2022/08/17 03:37:22;;;;;;;114.70;48.45;;;19.80;99.90;;;;;;5111063;28;20189;-49
2022/08/17 03:39:48;;;;;;;92.05;46.67;;;19.90;99.90;;;;;;5095250;28;20666;-51
2022/08/17 03:42:18;;;;;;;97.75;45.92;;;20.00;99.90;;;;;;5077682;28;20636;-47
2022/08/17 03:44:48;;;;;;;103.82;48.40;;;20.00;99.90;;;;;;5099555;27;20185;-53
2022/08/17 03:58:12;;;;;;;100.00;49.50;;;20.10;99.90;;;;;;5095426;28;20186;-52
2022/08/17 04:00:41;;;;;;;89.13;46.47;;;20.10;99.90;;;;;;5095726;28;20205;-54
2022/08/17 04:03:06;;;;;;;94.45;47.22;;;20.10;99.90;;;;;;5094808;28;20181;-51
2022/08/17 04:05:32;;;;;;;86.10;47.45;;;20.10;99.90;;;;;;5094253;28;20650;-53
2022/08/17 04:07:59;;;;;;;90.75;47.63;;;20.10;99.90;;;;;;5086184;28;20549;-53
2022/08/17 04:10:25;;;;;;;82.05;47.63;;;20.10;99.90;;;;;;5115407;28;20215;-49
2022/08/17 04:12:54;;;;;;;73.55;44.65;;;20.10;99.90;;;;;;5113053;27;20181;-50
2022/08/17 04:15:20;;;;;;;70.65;44.58;;;20.00;99.90;;;;;;5115225;28;20260;-52
2022/08/17 04:17:47;;;;;;;102.78;48.70;;;20.00;99.90;;;;;;5105664;28;20578;-52
2022/08/17 04:20:14;;;;;;;98.82;53.25;;;20.00;99.90;;;;;;5096801;28;20295;-53
2022/08/17 04:22:55;;;;;;;101.03;56.67;;;20.00;99.90;;;;;;5107664;28;20205;-50
2022/08/17 04:25:21;;;;;;;109.22;63.85;;;20.00;99.90;;;;;;5094536;28;20248;-51
2022/08/17 04:27:47;;;;;;;102.60;62.30;;;19.90;99.90;;;;;;5094840;28;20182;-54
2022/08/17 04:30:14;;;;;;;108.95;65.68;;;19.90;99.90;;;;;;5094615;28;20309;-51
2022/08/17 04:33:04;;;;;;;106.20;65.30;;;20.00;99.90;;;;;;5094256;28;20526;-48
2022/08/17 04:35:33;;;;;;;100.78;65.13;;;19.90;99.90;;;;;;5088254;28;20213;-53
2022/08/17 04:37:59;;;;;;;109.95;68.95;;;19.90;99.90;;;;;;5104396;28;20264;-49
2022/08/17 04:43:13;;;;;;;95.38;62.28;;;19.90;99.90;;;;;;5085492;28;20681;-52
2022/08/17 04:45:51;;;;;;;109.95;65.00;;;20.00;99.90;;;;;;5097932;28;20235;-53
2022/08/17 04:48:17;;;;;;;101.70;59.67;;;20.00;99.90;;;;;;5095384;28;20267;-53
2022/08/17 04:50:46;;;;;;;94.20;59.15;;;20.00;99.90;;;;;;5113547;28;20193;-52
2022/08/17 04:53:13;;;;;;;87.18;57.47;;;20.00;99.90;;;;;;5102538;28;20649;-54
2022/08/17 04:55:39;;;;;;;81.43;53.85;;;20.00;99.90;;;;;;5093666;28;20186;-53
2022/08/17 04:58:06;;;;;;;87.82;55.03;;;20.00;99.90;;;;;;5094340;28;20201;-54
2022/08/17 05:00:32;;;;;;;98.75;54.72;;;19.90;99.90;;;;;;5082145;28;20181;-52
2022/08/17 05:02:58;;;;;;;84.03;55.35;;;19.90;99.90;;;;;;5103701;28;20278;-53
2022/08/17 05:05:37;;;;;;;84.30;53.70;;;19.90;99.90;;;;;;5094255;28;20232;-52
2022/08/17 05:08:04;;;;;;;91.35;55.15;;;19.90;99.90;;;;;;5100527;28;20271;-49
2022/08/17 05:10:33;;;;;;;91.10;58.35;;;19.90;99.90;;;;;;5113928;28;20283;-52
2022/08/17 05:13:05;;;;;;;90.55;56.58;;;19.80;99.90;;;;;;5110469;28;20177;-52
2022/08/17 05:15:36;;;;;;;88.32;55.28;;;19.90;99.90;;;;;;5114023;28;20178;-50
2022/08/17 05:18:03;;;;;;;89.53;56.95;;;19.90;99.90;;;;;;5102152;28;20186;-48
2022/08/17 05:20:29;;;;;;;91.00;58.97;;;19.90;99.90;;;;;;5093475;28;20178;-48
2022/08/17 05:22:58;;;;;;;104.68;60.28;;;19.90;99.90;;;;;;5093629;28;20185;-51
2022/08/17 05:25:29;;;;;;;104.00;63.60;;;19.90;99.90;;;;;;5093529;28;20193;-52
2022/08/17 05:27:56;;;;;;;101.68;60.33;;;19.90;99.90;;;;;;5093441;28;20186;-52
2022/08/17 05:30:24;;;;;;;96.03;58.70;;;20.00;99.90;;;;;;5093397;28;20225;-50
2022/08/17 05:33:04;;;;;;;87.15;56.70;;;20.00;99.90;;;;;;5092165;28;20560;-54
2022/08/17 05:35:32;;;;;;;84.18;55.80;;;20.00;99.90;;;;;;5098366;28;20226;-52
2022/08/17 05:37:58;;;;;;;87.35;56.45;;;20.00;99.90;;;;;;5094416;28;20181;-54
2022/08/17 05:40:24;;;;;;;78.53;54.72;;;20.00;99.90;;;;;;5102649;28;20192;-53
2022/08/17 05:43:01;;;;;;;82.70;52.95;;;20.00;99.90;;;;;;5108880;28;20259;-50
2022/08/17 05:45:29;;;;;;;86.25;56.83;;;20.00;99.90;;;;;;5078358;28;20183;-50
2022/08/17 05:47:54;;;;;;;89.55;55.65;;;20.00;99.90;;;;;;5086119;28;20267;-53
2022/08/17 05:50:24;;;;;;;93.30;58.70;;;20.00;99.90;;;;;;5092813;28;20213;-54
2022/08/17 05:53:09;;;;;;;88.32;56.80;;;20.00;99.90;;;;;;5093327;28;20194;-50
2022/08/17 05:56:30;;;;;;;86.85;55.10;;;20.00;99.90;;;;;;5093018;28;20256;-51
2022/08/17 05:59:31;;;;;;;85.22;53.45;;;20.00;99.90;;;;;;5032462;28;20194;-54
2022/08/17 06:02:20;;;;;;;87.60;56.15;;;20.00;99.90;;;;;;5093107;28;20211;-53
2022/08/17 06:04:51;;;;;;;88.07;55.83;;;19.90;99.90;;;;;;5092753;28;20173;-54
2022/08/17 06:07:30;;;;;;;102.20;59.80;;;19.90;99.90;;;;;;5093120;28;20185;-52
2022/08/17 06:10:26;;;;;;;97.85;58.15;;;19.90;99.90;;;;;;5100852;28;20212;-53
2022/08/17 06:13:05;;;;;;;103.20;59.67;;;19.80;99.90;;;;;;5095265;28;20185;-54
2022/08/17 06:16:00;;;;;;;105.10;61.05;;;19.90;99.90;;;;;;5113180;28;20183;-55
2022/08/17 06:18:35;;;;;;;98.75;59.97;;;19.90;99.90;;;;;;5075091;28;20620;-54
2022/08/17 06:21:04;;;;;;;92.47;56.05;;;20.00;99.90;;;;;;5092531;28;20169;-52
2022/08/17 06:23:40;;;;;;;94.65;56.42;;;20.00;99.90;;;;;;5092400;28;20264;-59
2022/08/17 06:26:28;;;;;;;87.78;54.67;;;19.90;99.90;;;;;;5092244;28;20644;-53
2022/08/17 06:29:01;;;;;;;89.95;55.63;;;19.90;99.90;;;;;;5077336;28;20213;-52
2022/08/17 06:31:33;;;;;;;82.68;52.58;;;19.90;99.90;;;;;;5094689;28;20609;-53
2022/08/17 06:34:02;;;;;;;85.93;53.58;;;19.90;99.90;;;;;;5116592;28;20175;-56
2022/08/17 06:36:56;;;;;;;92.20;54.55;;;20.00;99.90;;;;;;5093314;28;20560;-55
2022/08/17 06:40:05;;;;;;;86.35;52.50;;;20.00;99.90;;;;;;5084774;28;20224;-56
2022/08/17 06:42:39;;;;;;;87.40;49.58;;;20.00;99.90;;;;;;5096986;28;20795;-56
2022/08/17 06:45:25;;;;;;;69.32;44.72;;;20.00;99.90;;;;;;5096567;28;20173;-55
2022/08/17 06:47:57;;;;;;;58.80;41.40;;;20.00;99.90;;;;;;5100138;28;20225;-56
2022/08/17 06:50:46;;;;;;;59.42;38.35;;;20.00;99.90;;;;;;5096516;28;20675;-55
2022/08/17 06:53:25;;;;;;;64.03;40.22;;;19.90;99.90;;;;;;5096148;28;20272;-60
2022/08/17 06:56:13;;;;;;;61.67;38.90;;;19.80;99.90;;;;;;5078470;28;20177;-53
2022/08/17 06:58:42;;;;;;;56.85;35.42;;;19.80;99.90;;;;;;5096587;28;20178;-54
2022/08/17 07:01:17;;;;;;;51.72;31.40;;;19.70;99.90;;;;;;5096666;28;20166;-49
2022/08/17 07:04:05;;;;;;;42.83;30.33;;;19.80;99.90;;;;;;5095452;28;20200;-53
2022/08/17 07:06:57;;;;;;;47.50;31.75;;;19.70;99.90;;;;;;5096475;28;20584;-48
2022/08/17 07:09:37;;;;;;;45.03;31.50;;;19.70;99.90;;;;;;5097824;27;20244;-52
2022/08/17 07:12:21;;;;;;;47.60;31.92;;;19.70;99.90;;;;;;5078644;28;20185;-51
2022/08/17 07:15:03;;;;;;;51.28;32.85;;;19.70;99.90;;;;;;5096048;28;20170;-49
2022/08/17 07:17:29;;;;;;;41.72;29.13;;;19.70;99.90;;;;;;5096453;28;20190;-55
2022/08/17 07:20:04;;;;;;;37.08;26.67;;;19.70;99.90;;;;;;5095986;28;20176;-54
2022/08/17 07:22:48;;;;;;;40.53;27.48;;;19.70;99.90;;;;;;5108353;28;20185;-55
2022/08/17 07:25:17;;;;;;;36.42;25.75;;;19.70;99.90;;;;;;5115408;28;20181;-50
2022/08/17 07:27:49;;;;;;;38.72;26.85;;;19.70;99.90;;;;;;5100891;28;20243;-54
2022/08/17 07:30:24;;;;;;;33.42;25.08;;;19.70;99.90;;;;;;5077776;28;20572;-56
2022/08/17 07:32:56;;;;;;;34.67;26.48;;;19.80;99.90;;;;;;5076933;28;20258;-55
2022/08/17 07:35:28;;;;;;;37.10;25.92;;;19.80;99.90;;;;;;5105266;28;20177;-54
2022/08/17 07:38:13;;;;;;;37.40;25.63;;;19.80;99.90;;;;;;5099178;28;20213;-51
2022/08/17 07:40:56;;;;;;;34.80;24.38;;;19.90;99.90;;;;;;5102486;28;20216;-55
2022/08/17 07:43:24;;;;;;;35.30;24.75;;;19.90;99.90;;;;;;5095971;28;20621;-54
2022/08/17 07:48:45;;;;;;;29.52;21.63;;;20.00;99.90;;;;;;5077046;28;20590;-51
2022/08/17 07:51:21;;;;;;;30.88;21.00;;;20.00;99.90;;;;;;5095828;28;20186;-54
2022/08/17 07:53:47;;;;;;;25.10;19.17;;;20.00;99.90;;;;;;5098502;28;20260;-53
2022/08/17 07:56:47;;;;;;;27.55;19.98;;;19.90;99.90;;;;;;5111250;28;20395;-55
2022/08/17 07:59:18;;;;;;;26.00;19.60;;;20.00;99.90;;;;;;5095454;28;20220;-52
2022/08/17 08:01:59;;;;;;;24.75;18.60;;;19.90;99.90;;;;;;5095231;28;20273;-52
2022/08/17 08:04:35;;;;;;;23.05;18.48;;;19.90;99.90;;;;;;5094327;28;20170;-52
2022/08/17 08:07:06;;;;;;;27.33;19.45;;;19.80;99.90;;;;;;5102627;28;20180;-54
2022/08/17 08:09:37;;;;;;;26.73;19.33;;;19.80;99.90;;;;;;5112900;28;20282;-52
2022/08/17 08:12:47;;;;;;;24.98;18.90;;;19.80;99.90;;;;;;5087548;28;20228;-54
2022/08/17 08:15:32;;;;;;;26.98;20.38;;;19.80;99.90;;;;;;4993140;28;20193;-54
2022/08/17 08:18:03;;;;;;;30.77;21.27;;;19.80;99.90;;;;;;5008073;28;20271;-53
2022/08/17 08:20:58;;;;;;;27.08;20.75;;;19.80;99.90;;;;;;5072127;28;20197;-53
2022/08/17 08:23:39;;;;;;;28.90;21.17;;;19.80;99.90;;;;;;5097501;28;20181;-55
2022/08/17 08:26:17;;;;;;;31.40;21.10;;;19.80;99.90;;;;;;5112155;28;20177;-54
2022/08/17 08:29:04;;;;;;;26.38;19.17;;;19.80;99.90;;;;;;5094526;28;20205;-56
2022/08/17 08:31:36;;;;;;;24.13;18.30;;;19.80;99.90;;;;;;5098076;28;20260;-53
2022/08/17 08:34:14;;;;;;;23.70;17.45;;;19.80;99.90;;;;;;5114808;28;20180;-54
2022/08/17 08:37:00;;;;;;;20.00;17.23;;;19.70;99.90;;;;;;5108070;28;20178;-51
2022/08/17 08:39:38;;;;;;;22.77;16.65;;;19.70;99.90;;;;;;5094638;28;20190;-54
2022/08/17 08:42:28;;;;;;;21.92;16.58;;;19.70;99.90;;;;;;5094505;28;20188;-57
2022/08/17 08:45:14;;;;;;;23.10;18.08;;;19.70;99.90;;;;;;5103814;28;20203;-57
2022/08/17 08:47:54;;;;;;;21.00;16.67;;;19.70;99.90;;;;;;5095908;28;20225;-57
2022/08/17 08:50:55;;;;;;;19.20;15.98;;;19.70;99.90;;;;;;5113333;28;20209;-56
2022/08/17 08:53:35;;;;;;;19.50;16.00;;;19.60;99.90;;;;;;5095150;28;20283;-56
2022/08/17 08:56:13;;;;;;;20.45;16.45;;;19.60;99.90;;;;;;5075859;28;20181;-57
2022/08/17 08:58:58;;;;;;;21.15;16.48;;;19.60;99.90;;;;;;5094188;28;20192;-56
2022/08/17 09:01:51;;;;;;;20.67;16.73;;;19.60;99.90;;;;;;5103430;28;20178;-57
2022/08/17 09:04:27;;;;;;;19.33;16.33;;;19.70;99.90;;;;;;5093302;28;20633;-57
2022/08/17 09:07:02;;;;;;;21.73;16.80;;;19.80;99.90;;;;;;5093823;28;20218;-59
2022/08/17 09:09:45;;;;;;;19.58;15.48;;;19.80;99.90;;;;;;5102543;28;20317;-54
2022/08/17 09:12:49;;;;;;;19.73;17.23;;;19.90;99.90;;;;;;5103466;28;20273;-57
2022/08/17 09:15:41;;;;;;;21.25;15.93;;;20.00;99.90;;;;;;5038271;28;20211;-58
2022/08/17 09:18:20;;;;;;;16.52;14.80;;;20.10;99.90;;;;;;5068876;28;20190;-57
2022/08/17 09:20:52;;;;;;;16.75;13.40;;;20.20;99.90;;;;;;5093769;28;20196;-58
2022/08/17 09:23:36;;;;;;;16.92;13.50;;;20.20;99.90;;;;;;5095455;28;20624;-56
2022/08/17 09:26:09;;;;;;;22.60;11.85;;;20.30;99.90;;;;;;5112915;28;20181;-57
2022/08/17 09:28:37;;;;;;;13.50;11.88;;;20.30;99.90;;;;;;5093601;28;20170;-57
2022/08/17 09:31:09;;;;;;;14.13;11.50;;;20.30;99.90;;;;;;5093901;28;20212;-56
2022/08/17 09:33:41;;;;;;;17.45;13.77;;;20.30;99.90;;;;;;5074725;28;20174;-54
2022/08/17 09:36:24;;;;;;;16.27;12.63;;;20.30;99.90;;;;;;5108232;28;20173;-56
2022/08/17 09:39:12;;;;;;;20.10;13.20;;;20.30;99.90;;;;;;5075534;28;20664;-57
2022/08/17 09:41:56;;;;;;;15.63;13.25;;;20.30;99.90;;;;;;5093376;28;20182;-56
2022/08/17 09:44:38;;;;;;;17.48;14.35;;;20.40;99.90;;;;;;5093286;28;20185;-55
2022/08/17 09:47:25;;;;;;;18.13;15.38;;;20.40;99.90;;;;;;5096694;28;20260;-55
2022/08/17 09:50:06;;;;;;;18.75;16.17;;;20.40;99.90;;;;;;5110236;28;20288;-53
2022/08/17 09:52:32;;;;;;;21.67;16.95;;;20.40;99.90;;;;;;5093907;28;20180;-53
2022/08/17 09:55:00;;;;;;;18.90;16.45;;;20.50;99.90;;;;;;5111813;28;20527;-56
2022/08/17 09:57:47;;;;;;;25.25;18.50;;;20.50;99.90;;;;;;5100817;28;20550;-55
2022/08/17 10:00:26;;;;;;;24.55;19.35;;;20.50;99.90;;;;;;5093250;28;20629;-54
2022/08/17 10:03:36;;;;;;;24.90;19.83;;;20.60;99.90;;;;;;5092397;28;20205;-55
2022/08/17 10:06:22;;;;;;;24.65;20.58;;;20.60;99.90;;;;;;5088303;28;20216;-55
2022/08/17 10:09:12;;;;;;;27.35;21.10;;;20.60;99.90;;;;;;5093246;28;20205;-54
2022/08/17 10:14:45;;;;;;;31.50;24.35;;;20.60;99.90;;;;;;5107773;28;20695;-52
2022/08/17 10:17:23;;;;;;;34.92;24.45;;;20.60;99.90;;;;;;5093414;28;20184;-55
2022/08/17 10:20:19;;;;;;;30.75;24.77;;;20.60;99.90;;;;;;5092086;28;20354;-54
2022/08/17 10:28:39;;;;;;;41.15;29.15;;;20.80;99.90;;;;;;5074652;28;20533;-53
2022/08/17 10:31:08;;;;;;;37.38;28.38;;;20.80;99.90;;;;;;5087030;28;20258;-52
2022/08/17 10:33:57;;;;;;;38.05;30.65;;;20.90;99.90;;;;;;5092090;28;20192;-53
2022/08/17 10:36:53;;;;;;;41.13;30.73;;;20.90;99.90;;;;;;5103901;28;20181;-52
2022/08/17 10:39:31;;;;;;;39.25;30.80;;;20.90;99.90;;;;;;5074962;28;20260;-55
2022/08/17 10:42:03;;;;;;;43.45;33.35;;;20.90;99.90;;;;;;5092368;28;20624;-56
2022/08/17 10:44:47;;;;;;;44.10;33.40;;;20.90;99.90;;;;;;5113106;28;20233;-54
2022/08/17 10:47:18;;;;;;;46.70;34.65;;;20.90;99.90;;;;;;5093439;28;20229;-53
2022/08/17 10:49:52;;;;;;;48.47;34.40;;;20.80;99.90;;;;;;5113077;28;20208;-55
2022/08/17 10:52:28;;;;;;;50.50;35.53;;;20.80;99.90;;;;;;5099419;28;20760;-54
2022/08/17 10:54:55;;;;;;;50.33;37.63;;;20.90;99.90;;;;;;5113331;28;20177;-52
2022/08/17 10:57:32;;;;;;;49.63;36.90;;;20.90;99.90;;;;;;5093519;28;20262;-55
2022/08/17 11:00:26;;;;;;;46.95;34.30;;;20.90;99.90;;;;;;5113207;28;20177;-51
2022/08/17 11:02:56;;;;;;;47.22;35.85;;;20.90;99.90;;;;;;5081338;28;20189;-53
2022/08/17 11:05:31;;;;;;;46.75;34.17;;;20.90;99.90;;;;;;5073807;28;20186;-51
2022/08/17 11:08:29;;;;;;;42.88;34.33;;;20.90;99.90;;;;;;5091776;28;20185;-53
2022/08/17 11:11:00;;;;;;;46.70;34.60;;;20.90;99.90;;;;;;5037927;28;20621;-57
2022/08/17 11:13:45;;;;;;;42.80;33.65;;;20.90;99.90;;;;;;5092720;28;20182;-54
2022/08/17 11:16:46;;;;;;;43.72;33.10;;;20.90;99.90;;;;;;5096220;28;20184;-52
2022/08/17 11:20:00;;;;;;;43.95;33.00;;;20.90;99.90;;;;;;5084421;28;20215;-57
2022/08/17 11:22:45;;;;;;;44.97;32.13;;;20.90;99.90;;;;;;5095884;28;20182;-53
2022/08/17 11:25:32;;;;;;;46.67;33.25;;;21.00;99.90;;;;;;5107559;28;20188;-53
2022/08/17 11:28:27;;;;;;;38.13;30.30;;;21.00;99.90;;;;;;5080448;28;20181;-51
2022/08/17 11:31:08;;;;;;;41.42;33.00;;;21.00;99.90;;;;;;5095397;28;20194;-60
2022/08/17 11:33:34;;;;;;;43.20;33.63;;;21.00;99.90;;;;;;5095551;28;20238;-54
2022/08/17 11:36:11;;;;;;;41.92;32.80;;;21.10;99.90;;;;;;5108841;28;20703;-57
2022/08/17 11:39:05;;;;;;;41.05;32.95;;;21.10;99.90;;;;;;5096038;28;20647;-51
2022/08/17 11:41:47;;;;;;;39.63;33.85;;;21.10;99.90;;;;;;5090721;28;20551;-54
2022/08/17 11:44:22;;;;;;;43.40;33.25;;;21.20;99.90;;;;;;5114849;28;20177;-54
2022/08/17 11:53:36;;;;;;;42.40;33.10;;;21.30;99.90;;;;;;5100184;28;20190;-52
2022/08/17 11:56:28;;;;;;;35.92;29.17;;;21.40;99.90;;;;;;5095413;28;20254;-54
2022/08/17 11:58:54;;;;;;;35.25;28.58;;;21.40;99.90;;;;;;5095943;28;20686;-52
2022/08/17 12:01:25;;;;;;;33.03;27.90;;;21.50;99.90;;;;;;5097222;28;20612;-55
2022/08/17 12:04:14;;;;;;;33.50;28.10;;;21.40;99.90;;;;;;5096123;28;20271;-52
2022/08/17 12:06:50;;;;;;;33.08;28.08;;;21.40;99.90;;;;;;5082427;28;20177;-54
2022/08/17 12:09:27;;;;;;;31.25;26.98;;;21.40;99.90;;;;;;5115801;28;20209;-54
2022/08/17 12:11:57;;;;;;;33.45;27.75;;;21.40;99.90;;;;;;5099847;28;20288;-54
2022/08/17 12:14:28;;;;;;;36.13;28.45;;;21.40;99.90;;;;;;5094282;28;20315;-52
2022/08/17 12:17:10;;;;;;;32.70;27.17;;;21.40;99.90;;;;;;5095225;28;20185;-54
2022/08/17 12:19:38;;;;;;;31.55;27.88;;;21.40;99.90;;;;;;5097058;28;20190;-53
2022/08/17 12:22:22;;;;;;;31.98;26.88;;;21.30;99.90;;;;;;5077383;28;20178;-51
2022/08/17 12:25:07;;;;;;;30.05;26.65;;;21.30;99.90;;;;;;5094958;28;20226;-53
2022/08/17 12:27:35;;;;;;;29.98;26.27;;;21.30;99.90;;;;;;5106018;28;20655;-50
2022/08/17 12:30:08;;;;;;;31.73;26.83;;;21.30;99.90;;;;;;5115232;28;20276;-53
2022/08/17 12:32:35;;;;;;;30.13;25.17;;;21.30;99.90;;;;;;5100616;28;20253;-50
2022/08/17 12:35:03;;;;;;;31.45;25.85;;;21.30;99.90;;;;;;5105300;28;20188;-52
2022/08/17 12:37:34;;;;;;;29.48;25.25;;;21.30;99.90;;;;;;5094601;28;20573;-53
2022/08/17 12:40:07;;;;;;;28.83;25.63;;;21.30;99.90;;;;;;5094678;28;20204;-52
2022/08/17 12:42:36;;;;;;;29.65;25.05;;;21.20;99.90;;;;;;5094821;28;20203;-52
2022/08/17 12:45:33;;;;;;;34.55;26.25;;;21.30;99.90;;;;;;5104961;28;20188;-51
2022/08/17 12:48:02;;;;;;;32.70;27.33;;;21.20;99.90;;;;;;5112464;28;20220;-51
2022/08/17 12:50:28;;;;;;;30.63;26.95;;;21.20;99.90;;;;;;5114666;28;20245;-52
2022/08/17 12:52:54;;;;;;;35.47;28.10;;;21.20;99.90;;;;;;5097372;28;20190;-53
2022/08/17 12:55:24;;;;;;;32.92;27.48;;;21.20;99.90;;;;;;5094289;28;20181;-54
2022/08/17 12:57:53;;;;;;;34.20;28.08;;;21.20;99.90;;;;;;5109300;28;20181;-51
2022/08/17 13:00:29;;;;;;;33.60;29.55;;;21.20;99.90;;;;;;5113121;28;20698;-51
2022/08/17 13:03:06;;;;;;;33.38;29.65;;;21.20;99.90;;;;;;5079660;28;20581;-54
2022/08/17 13:05:35;;;;;;;34.28;29.40;;;21.20;99.90;;;;;;5075395;28;20633;-54
2022/08/17 13:08:12;;;;;;;33.35;27.25;;;21.20;99.90;;;;;;5094111;28;20190;-48
2022/08/17 13:10:38;;;;;;;32.35;28.58;;;21.20;99.90;;;;;;5093934;28;20233;-52
2022/08/17 13:13:21;;;;;;;35.75;28.42;;;21.20;99.90;;;;;;5093780;28;20664;-53
2022/08/17 13:15:53;;;;;;;34.97;29.65;;;21.20;99.90;;;;;;5093516;28;20231;-51
2022/08/17 13:18:40;;;;;;;38.90;30.50;;;21.20;99.90;;;;;;5094450;28;20208;-49
2022/08/17 13:21:11;;;;;;;36.53;29.17;;;21.30;99.90;;;;;;5093752;28;20173;-50
2022/08/17 13:23:37;;;;;;;35.38;29.25;;;21.20;99.90;;;;;;5093879;28;20174;-52
2022/08/17 13:26:06;;;;;;;34.35;29.40;;;21.30;99.90;;;;;;5093884;28;20192;-53
2022/08/17 13:28:35;;;;;;;37.28;29.70;;;21.20;99.90;;;;;;5112492;28;20177;-53
2022/08/17 13:31:27;;;;;;;36.78;29.33;;;21.20;99.90;;;;;;5112386;28;20248;-49
2022/08/17 13:34:26;;;;;;;33.40;28.02;;;21.20;99.90;;;;;;5089847;28;20653;-52
2022/08/17 13:37:28;;;;;;;34.63;29.10;;;21.20;99.90;;;;;;5093472;28;20176;-54